Al Rawdah — V7VM8 — position and weather

sailwx.info

Track history (hours):
 
Tides and Currents Weather Stations Pressure Air Temp Water Temp Dewpoint Dewpoint Depression Visibility Wind Speed Wind Dir Waves Ship Positions

Al Rawdah

Last reported at 2017-Jun-19 13:00 UTC. Time now 2017-Jun-25 20:56 UTC.
Position N 31°28' E 031°46'.

Length 307 m; draft 12.2 m.

Type: Cargo ship. MMSI: 538004160.

Date/timePositionNaut miles runAvg speedWind from/ knotsBaromVisibWave heightAir tempDewpointWater temp
2017-Jun-19 13:00N 31°28' E 031°46'3 6.5
2017-Jun-19 12:30N 31°31' E 031°46'510.5
2017-Jun-19 12:00N 31°36' E 031°47'4 8.7
2017-Jun-19 11:30N 31°40' E 031°45'0 0.7
2017-Jun-19 11:00N 31°40' E 031°45'1 1.1
2017-Jun-19 10:30N 31°40' E 031°45'0 0.2
2017-Jun-19 09:14N 31°40' E 031°45'0 0.7
2017-Jun-19 08:34N 31°40' E 031°44'0 0.5
2017-Jun-19 07:44N 31°40' E 031°44'0 0.6
2017-Jun-19 07:30N 31°41' E 031°44'0 0.7
2017-Jun-19 06:48N 31°41' E 031°44'1 3.1
2017-Jun-19 06:30N 31°42' E 031°43'3 5.6
2017-Jun-19 06:00N 31°44' E 031°42'5 9.1
2017-Jun-19 05:30N 31°47' E 031°38'610.9
2017-Jun-19 04:59N 31°51' E 031°33'612.5
2017-Jun-19 04:30N 31°54' E 031°27'714.1
2017-Jun-19 03:59N 31°58' E 031°19'817.7
2017-Jun-19 03:30N 32°01' E 031°10'917.9
2017-Jun-19 02:59N 32°03' E 030°59'68815.2
2017-Jun-17 05:36N 35°06' E 017°43'216.6
2017-Jun-17 05:30N 35°06' E 017°41'816.7
2017-Jun-17 05:00N 35°08' E 017°31'816.6
2017-Jun-17 04:30N 35°10' E 017°21'816.6
2017-Jun-17 04:01N 35°12' E 017°11'816.5
2017-Jun-17 03:30N 35°14' E 017°01'1016.5
2017-Jun-17 02:53N 35°17' E 016°49'1416.2
2017-Jun-17 02:00N 35°21' E 016°33'815.9
2017-Jun-17 01:31N 35°23' E 016°23'816.2
2017-Jun-17 01:01N 35°26' E 016°14'816.4
2017-Jun-17 00:30N 35°28' E 016°04'1416.5
2017-Jun-16 23:39N 35°32' E 015°48'316.7
2017-Jun-16 23:30N 35°32' E 015°44'816.3
2017-Jun-16 23:00N 35°34' E 015°35'816.6
2017-Jun-16 22:30N 35°37' E 015°25'816.3
2017-Jun-16 22:00N 35°39' E 015°15'816.1
2017-Jun-16 21:30N 35°41' E 015°06'815.8
2017-Jun-16 21:00N 35°42' E 014°56'816.0
2017-Jun-16 20:30N 35°43' E 014°46'815.7
2017-Jun-16 20:00N 35°47' E 014°38'5 9.9
2017-Jun-16 19:30N 35°49' E 014°32'0 0.6
2017-Jun-16 18:58N 35°49' E 014°33'0 0.0
2017-Jun-16 18:28N 35°49' E 014°33'0 0.0
2017-Jun-16 17:52N 35°49' E 014°33'0 0.0
2017-Jun-16 17:28N 35°49' E 014°33'0 0.0
2017-Jun-16 16:58N 35°49' E 014°33'0 0.0
2017-Jun-16 16:25N 35°49' E 014°33'0 0.0
2017-Jun-16 15:52N 35°49' E 014°33'0 0.0
2017-Jun-16 15:28N 35°49' E 014°33'0 0.0
2017-Jun-16 14:58N 35°49' E 014°33'0 0.0
2017-Jun-16 14:28N 35°49' E 014°33'0 0.0
2017-Jun-16 13:25N 35°49' E 014°33'0 0.0
2017-Jun-16 12:58N 35°49' E 014°33'0 0.2
2017-Jun-16 12:28N 35°49' E 014°32'1 2.2
2017-Jun-16 12:00N 35°49' E 014°34'4 8.6
2017-Jun-16 11:30N 35°46' E 014°38'4 8.0
2017-Jun-16 11:00N 35°42' E 014°35'4 7.4
2017-Jun-16 10:30N 35°42' E 014°31'816.2
2017-Jun-16 10:00N 35°42' E 014°21'917.2
2017-Jun-16 09:31N 35°48' E 014°13'917.8
2017-Jun-16 09:01N 35°54' E 014°05'918.2
2017-Jun-16 08:30N 36°00' E 013°57'1019.7
2017-Jun-16 08:00N 36°07' E 013°48'1019.6
2017-Jun-16 07:31N 36°14' E 013°40'1019.5
2017-Jun-16 07:01N 36°21' E 013°31'1019.4
2017-Jun-16 06:30N 36°28' E 013°23'1019.3
2017-Jun-16 06:01N 36°35' E 013°14'1019.4
2017-Jun-16 05:30N 36°41' E 013°05'1019.6
2017-Jun-16 05:00N 36°48' E 012°56'1019.6
2017-Jun-16 04:30N 36°55' E 012°48'1020.3
2017-Jun-16 04:00N 37°03' E 012°39'1020.2
2017-Jun-16 03:30N 37°10' E 012°31'1020.3
2017-Jun-16 03:00N 37°18' E 012°22'1020.6
2017-Jun-16 02:30N 37°26' E 012°14'1020.4
2017-Jun-16 02:00N 37°34' E 012°06'1020.2
2017-Jun-16 01:30N 37°42' E 011°58'1019.6
2017-Jun-16 01:00N 37°50' E 011°51'1019.6
2017-Jun-16 00:31N 37°59' E 011°47'1019.3
2017-Jun-16 00:01N 38°08' E 011°43'1019.2
2017-Jun-15 23:31N 38°17' E 011°39'1019.4
2017-Jun-15 22:59N 38°27' E 011°35'919.4
2017-Jun-15 22:30N 38°35' E 011°31'1019.4
2017-Jun-15 22:01N 38°45' E 011°27'1019.5
2017-Jun-15 21:30N 38°54' E 011°23'1019.6
2017-Jun-15 20:59N 39°04' E 011°19'919.5
2017-Jun-15 20:30N 39°13' E 011°15'1019.7
2017-Jun-15 20:00N 39°22' E 011°11'1019.7
2017-Jun-15 19:30N 39°31' E 011°07'1019.7
2017-Jun-15 19:01N 39°40' E 011°03'1019.6
2017-Jun-15 18:31N 39°50' E 010°59'1019.2
2017-Jun-15 18:01N 39°59' E 010°54'1019.2
2017-Jun-15 17:31N 40°08' E 010°51'1019.4
2017-Jun-15 17:01N 40°17' E 010°47'1019.4
2017-Jun-15 16:30N 40°26' E 010°44'1019.4
2017-Jun-15 16:01N 40°36' E 010°39'1019.4
2017-Jun-15 15:30N 40°45' E 010°35'1019.3
2017-Jun-15 15:00N 40°54' E 010°31'1919.4
2017-Jun-15 14:00N 41°12' E 010°23'1020.9
2017-Jun-15 13:30N 41°22' E 010°18'1222.2
2017-Jun-15 12:58N 41°34' E 010°14'1122.2
2017-Jun-15 12:30N 41°44' E 010°10'1222.4
2017-Jun-15 11:58N 41°55' E 010°05'1022.2
2017-Jun-15 11:30N 42°05' E 010°01'1122.1
2017-Jun-15 11:01N 42°15' E 009°56'1122.1
2017-Jun-15 10:31N 42°26' E 009°51'1122.0
2017-Jun-15 10:01N 42°36' E 009°46'1121.8
2017-Jun-15 09:30N 42°46' E 009°41'1121.3
2017-Jun-15 09:00N 42°56' E 009°37'1121.2
2017-Jun-15 08:30N 43°07' E 009°33'1121.3
2017-Jun-15 07:59N 43°17' E 009°29'1021.2
2017-Jun-15 07:31N 43°27' E 009°24'1020.9
2017-Jun-15 07:01N 43°37' E 009°19'1121.0
2017-Jun-15 06:31N 43°46' E 009°14'1121.0
2017-Jun-15 06:01N 43°56' E 009°09'1121.2
2017-Jun-15 05:31N 44°06' E 009°04'1021.0
2017-Jun-15 05:01N 44°16' E 008°60'815.2
2017-Jun-15 04:30N 44°23' E 008°56'1 2.3
2017-Jun-15 04:00N 44°24' E 008°55'0 0.0
2017-Jun-15 03:27N 44°24' E 008°55'0 0.0
2017-Jun-15 03:00N 44°24' E 008°55'0 0.0
2017-Jun-15 02:27N 44°24' E 008°55'0 0.0
2017-Jun-15 01:57N 44°24' E 008°55'0 0.0
2017-Jun-15 01:30N 44°24' E 008°55'0 0.0
2017-Jun-15 00:57N 44°24' E 008°55'0 0.0
2017-Jun-15 00:30N 44°24' E 008°55'0 0.0
2017-Jun-14 23:57N 44°24' E 008°55'0 0.0
2017-Jun-14 23:30N 44°24' E 008°55'0 0.0
2017-Jun-14 23:00N 44°24' E 008°55'0 0.0
2017-Jun-14 22:27N 44°24' E 008°55'0 0.0
2017-Jun-14 22:00N 44°24' E 008°55'0 0.0
2017-Jun-14 21:30N 44°24' E 008°55'0 0.0
2017-Jun-14 21:00N 44°24' E 008°55'0 0.0
2017-Jun-14 20:30N 44°24' E 008°55'0 0.0
2017-Jun-14 20:00N 44°24' E 008°55'0 0.0
2017-Jun-14 19:30N 44°24' E 008°55'0 0.0
2017-Jun-14 19:00N 44°24' E 008°55'0 0.0
2017-Jun-14 18:30N 44°24' E 008°55'0 0.0
2017-Jun-14 18:00N 44°24' E 008°55'0 0.0
2017-Jun-14 17:30N 44°24' E 008°55'0 0.0
2017-Jun-14 17:00N 44°24' E 008°55'0 0.0
2017-Jun-14 16:30N 44°24' E 008°55'0 0.0
2017-Jun-14 16:00N 44°24' E 008°55'0 0.0
2017-Jun-14 15:30N 44°24' E 008°55'0 0.0
2017-Jun-14 15:00N 44°24' E 008°55'0 0.0
2017-Jun-14 13:57N 44°24' E 008°55'0 0.0
2017-Jun-14 13:30N 44°24' E 008°55'0 0.0
2017-Jun-14 13:00N 44°24' E 008°55'0 0.0
2017-Jun-14 12:30N 44°24' E 008°55'0 0.0
2017-Jun-14 11:57N 44°24' E 008°55'0 0.0
2017-Jun-14 11:24N 44°24' E 008°55'0 0.0
2017-Jun-14 11:00N 44°24' E 008°55'0 0.0
2017-Jun-14 10:27N 44°24' E 008°55'0 0.0
2017-Jun-14 09:57N 44°24' E 008°55'0 0.0
2017-Jun-14 09:30N 44°24' E 008°55'2 3.3
2017-Jun-14 09:00N 44°23' E 008°57'2 4.1
2017-Jun-14 08:30N 44°21' E 008°58'0 0.6
2017-Jun-14 08:00N 44°21' E 008°58'3 5.4
2017-Jun-14 07:30N 44°19' E 008°59'4 7.4
2017-Jun-14 07:00N 44°16' E 008°56'1 1.8
2017-Jun-14 06:31N 44°15' E 008°55'2 3.1
2017-Jun-14 06:00N 44°14' E 008°53'0 0.8
2017-Jun-14 05:30N 44°14' E 008°53'0 0.8
2017-Jun-14 05:01N 44°13' E 008°54'0 0.4
2017-Jun-14 04:30N 44°14' E 008°54'0 0.8
2017-Jun-14 04:01N 44°14' E 008°54'0 0.4
2017-Jun-14 03:30N 44°14' E 008°54'0 0.7
2017-Jun-14 03:00N 44°14' E 008°55'0 0.4
2017-Jun-14 02:30N 44°14' E 008°55'0 0.5
2017-Jun-14 02:00N 44°14' E 008°55'0 0.7
2017-Jun-14 01:30N 44°14' E 008°55'1 1.1
2017-Jun-14 01:00N 44°13' E 008°54'0 0.5
2017-Jun-14 00:30N 44°13' E 008°54'0 0.9
2017-Jun-14 00:00N 44°13' E 008°54'0 0.4
2017-Jun-13 23:30N 44°13' E 008°54'0 0.6
2017-Jun-13 23:00N 44°13' E 008°55'0 0.5
2017-Jun-13 22:30N 44°13' E 008°55'0 0.6
2017-Jun-13 22:01N 44°13' E 008°55'0 0.6
2017-Jun-13 21:30N 44°13' E 008°56'0 0.8
2017-Jun-13 21:00N 44°13' E 008°56'0 0.3
2017-Jun-13 20:31N 44°13' E 008°57'0 0.3
2017-Jun-13 20:00N 44°13' E 008°56'0 0.2
2017-Jun-13 19:30N 44°13' E 008°56'0 0.7
2017-Jun-13 19:00N 44°13' E 008°56'0 0.1
2017-Jun-13 18:30N 44°13' E 008°56'0 0.4
2017-Jun-13 18:00N 44°13' E 008°56'0 0.6
2017-Jun-13 17:30N 44°13' E 008°56'0 0.7
2017-Jun-13 17:00N 44°13' E 008°57'0 0.3
2017-Jun-13 16:31N 44°13' E 008°57'1 1.3
2017-Jun-13 16:00N 44°13' E 008°56'0 0.3
2017-Jun-13 15:30N 44°13' E 008°56'1 2.6
2017-Jun-13 15:00N 44°12' E 008°55'9 9.0
2017-Jun-13 14:00N 44°06' E 008°45'612.6
2017-Jun-13 13:30N 44°02' E 008°38'612.7
2017-Jun-13 13:00N 43°58' E 008°31'612.6
2017-Jun-13 12:30N 43°55' E 008°24'612.5
2017-Jun-13 12:00N 43°51' E 008°17'612.4
2017-Jun-13 11:30N 43°48' E 008°10'612.2
2017-Jun-13 11:00N 43°44' E 008°03'612.1
2017-Jun-13 10:30N 43°40' E 007°56'612.1
2017-Jun-13 10:00N 43°36' E 007°50'612.3
2017-Jun-13 09:30N 43°33' E 007°43'815.6
2017-Jun-13 08:58N 43°28' E 007°34'6315.7
2017-Jun-13 04:57N 42°50' E 006°24'915.8
2017-Jun-13 04:24N 42°50' E 006°12'716.0
2017-Jun-13 03:58N 42°50' E 006°03'715.9
2017-Jun-13 03:30N 42°50' E 005°53'815.9
2017-Jun-13 03:00N 42°51' E 005°42'1016.1
2017-Jun-13 02:24N 42°52' E 005°29'616.1
2017-Jun-13 02:00N 42°52' E 005°20'1015.3
2017-Jun-13 01:23N 42°57' E 005°09'616.4
2017-Jun-13 01:00N 43°02' E 005°05'816.2
2017-Jun-13 00:30N 43°10' E 005°02'816.3
2017-Jun-13 00:00N 43°18' E 004°59'511.0
2017-Jun-12 23:30N 43°23' E 004°57'5 1.1
2017-Jun-12 19:32N 43°25' E 004°51'0 0.0
2017-Jun-12 19:29N 43°25' E 004°51'0 0.0
2017-Jun-12 17:32N 43°25' E 004°51'0 0.1
2017-Jun-12 17:29N 43°25' E 004°51'0 0.0
2017-Jun-12 11:14N 43°25' E 004°51'0 0.1
2017-Jun-12 06:19N 43°25' E 004°51'4 7.6
2017-Jun-12 05:49N 43°23' E 004°56'413.5
2017-Jun-12 05:30N 43°20' E 004°59'3 5.9
2017-Jun-12 04:59N 43°17' E 005°01'3 6.3
2017-Jun-12 04:30N 43°14' E 005°02'3 6.5
2017-Jun-12 03:59N 43°11' E 005°02'3 6.4
2017-Jun-12 03:30N 43°08' E 004°59'7 7.7
2017-Jun-12 02:36N 43°03' E 004°53'1 7.8
2017-Jun-12 02:29N 43°02' E 004°53'5 8.9
2017-Jun-12 01:56N 42°58' E 004°49'6 9.5
2017-Jun-12 01:15N 42°52' E 004°44'3 9.2
2017-Jun-12 00:57N 42°50' E 004°42'5 8.9
2017-Jun-12 00:25N 42°46' E 004°39'4 8.8
2017-Jun-11 23:59N 42°43' E 004°36'5 8.8
2017-Jun-11 23:23N 42°38' E 004°32'4 8.6
2017-Jun-11 22:57N 42°35' E 004°29'4 8.6
2017-Jun-11 22:31N 42°32' E 004°27'5 9.0
2017-Jun-11 21:56N 42°28' E 004°23'4 9.1
2017-Jun-11 21:29N 42°24' E 004°20'4 8.9
2017-Jun-11 21:00N 42°20' E 004°17'5 9.1
2017-Jun-11 20:28N 42°16' E 004°14'5 9.2
2017-Jun-11 19:53N 42°12' E 004°10'5 9.1
2017-Jun-11 19:23N 42°08' E 004°07'4 9.7
2017-Jun-11 19:00N 42°05' E 004°04'812.9
2017-Jun-11 18:25N 41°58' E 003°58'612.9
2017-Jun-11 17:58N 41°53' E 003°54'713.0
2017-Jun-11 17:28N 41°48' E 003°49'612.9
2017-Jun-11 17:00N 41°44' E 003°44'713.1
2017-Jun-11 16:30N 41°38' E 003°39'713.0
2017-Jun-11 16:00N 41°33' E 003°33'713.0
2017-Jun-11 15:30N 41°28' E 003°28'612.8
2017-Jun-11 15:00N 41°23' E 003°22'1313.1
2017-Jun-11 14:00N 41°13' E 003°12'713.6
2017-Jun-11 13:30N 41°07' E 003°06'713.6
2017-Jun-11 13:00N 41°02' E 003°00'713.4
2017-Jun-11 12:30N 40°57' E 002°55'713.4
2017-Jun-11 12:00N 40°52' E 002°49'713.5
2017-Jun-11 11:30N 40°47' E 002°43'713.5
2017-Jun-11 11:00N 40°42' E 002°37'713.4
2017-Jun-11 10:30N 40°37' E 002°32'713.6
2017-Jun-11 10:01N 40°32' E 002°26'713.6
2017-Jun-11 09:30N 40°26' E 002°20'713.3
2017-Jun-11 09:00N 40°21' E 002°15'713.1
2017-Jun-11 08:30N 40°16' E 002°09'613.0
2017-Jun-11 08:00N 40°11' E 002°04'613.0
2017-Jun-11 07:30N 40°06' E 001°58'713.0
2017-Jun-11 07:00N 40°01' E 001°53'713.0
2017-Jun-11 06:30N 39°56' E 001°48'713.2
2017-Jun-11 06:00N 39°51' E 001°42'713.3
2017-Jun-11 05:30N 39°46' E 001°36'713.5
2017-Jun-11 04:59N 39°41' E 001°31'713.5
2017-Jun-11 04:29N 39°35' E 001°25'613.4
2017-Jun-11 04:00N 39°30' E 001°20'713.5
2017-Jun-11 03:28N 39°25' E 001°14'613.4
2017-Jun-11 03:00N 39°20' E 001°08'713.4
2017-Jun-11 02:30N 39°15' E 001°03'713.4
2017-Jun-11 01:59N 39°09' E 000°58'713.2
2017-Jun-11 01:29N 39°04' E 000°52'713.6
2017-Jun-11 00:59N 38°59' E 000°46'1113.7
2017-Jun-11 00:09N 38°51' E 000°37'213.6
2017-Jun-11 00:00N 38°49' E 000°35'813.6
2017-Jun-10 23:25N 38°43' E 000°29'613.5
2017-Jun-10 23:00N 38°38' E 000°25'713.5
2017-Jun-10 22:30N 38°32' E 000°20'713.5
2017-Jun-10 22:00N 38°27' E 000°16'713.4
2017-Jun-10 21:30N 38°21' E 000°11'613.1
2017-Jun-10 21:00N 38°16' E 000°06'612.8
2017-Jun-10 20:30N 38°11' E 000°01'613.0
2017-Jun-10 20:00N 38°05' W 000°03'713.4
2017-Jun-10 19:28N 37°59' W 000°08'713.7
2017-Jun-10 18:56N 37°53' W 000°13'614.1
2017-Jun-10 18:30N 37°48' W 000°18'713.8
2017-Jun-10 18:00N 37°42' W 000°22'713.7
2017-Jun-10 17:30N 37°37' W 000°28'713.3
2017-Jun-10 17:00N 37°32' W 000°33'713.1
2017-Jun-10 16:30N 37°28' W 000°40'612.9
2017-Jun-10 16:00N 37°24' W 000°46'713.0
2017-Jun-10 15:30N 37°19' W 000°51'713.0
2017-Jun-10 15:00N 37°14' W 000°57'1312.9
2017-Jun-10 14:00N 37°06' W 001°10'612.3
2017-Jun-10 13:30N 37°02' W 001°15'612.2
2017-Jun-10 13:00N 36°58' W 001°21'612.4
2017-Jun-10 12:30N 36°54' W 001°27'612.7
2017-Jun-10 12:00N 36°49' W 001°33'612.6
2017-Jun-10 11:30N 36°45' W 001°39'712.8
2017-Jun-10 10:59N 36°41' W 001°45'813.0
2017-Jun-10 10:20N 36°35' W 001°53'514.3
2017-Jun-10 10:00N 36°32' W 001°57'712.9
2017-Jun-10 09:26N 36°27' W 002°04'1512.6
2017-Jun-10 08:17N 36°21' W 002°20'1812.6
2017-Jun-10 06:50N 36°18' W 002°43'412.3
2017-Jun-10 06:30N 36°17' W 002°48'612.4
2017-Jun-10 06:00N 36°16' W 002°55'612.3
2017-Jun-10 05:29N 36°15' W 003°03'10013.3
2017-Jun-09 21:59N 36°01' W 005°05'714.5
2017-Jun-09 21:31N 35°60' W 005°14'816.3
2017-Jun-09 21:00N 35°58' W 005°24'611.9
2017-Jun-09 20:28N 35°54' W 005°30'  
Track history (hours):
 
Tides and Currents Weather Stations Pressure Air Temp Water Temp Dewpoint Dewpoint Depression Visibility Wind Speed Wind Dir Waves Ship Positions

Al Rawdah

Last reported at 2017-Jun-19 13:00 UTC. Time now 2017-Jun-25 20:56 UTC.
Position N 31°28' E 031°46'.

Length 307 m; draft 12.2 m.

Type: Cargo ship. MMSI: 538004160.

Date/timePositionNaut miles runAvg speedWind from/ knotsBaromVisibWave heightAir tempDewpointWater temp
2017-Jun-19 13:00N 31°28' E 031°46'3 6.5
2017-Jun-19 12:30N 31°31' E 031°46'510.5
2017-Jun-19 12:00N 31°36' E 031°47'4 8.7
2017-Jun-19 11:30N 31°40' E 031°45'0 0.7
2017-Jun-19 11:00N 31°40' E 031°45'1 1.1
2017-Jun-19 10:30N 31°40' E 031°45'0 0.2
2017-Jun-19 09:14N 31°40' E 031°45'0 0.7
2017-Jun-19 08:34N 31°40' E 031°44'0 0.5
2017-Jun-19 07:44N 31°40' E 031°44'0 0.6
2017-Jun-19 07:30N 31°41' E 031°44'0 0.7
2017-Jun-19 06:48N 31°41' E 031°44'1 3.1
2017-Jun-19 06:30N 31°42' E 031°43'3 5.6
2017-Jun-19 06:00N 31°44' E 031°42'5 9.1
2017-Jun-19 05:30N 31°47' E 031°38'610.9
2017-Jun-19 04:59N 31°51' E 031°33'612.5
2017-Jun-19 04:30N 31°54' E 031°27'714.1
2017-Jun-19 03:59N 31°58' E 031°19'817.7
2017-Jun-19 03:30N 32°01' E 031°10'917.9
2017-Jun-19 02:59N 32°03' E 030°59'68815.2
2017-Jun-17 05:36N 35°06' E 017°43'216.6
2017-Jun-17 05:30N 35°06' E 017°41'816.7
2017-Jun-17 05:00N 35°08' E 017°31'816.6
2017-Jun-17 04:30N 35°10' E 017°21'816.6
2017-Jun-17 04:01N 35°12' E 017°11'816.5
2017-Jun-17 03:30N 35°14' E 017°01'1016.5
2017-Jun-17 02:53N 35°17' E 016°49'1416.2
2017-Jun-17 02:00N 35°21' E 016°33'815.9
2017-Jun-17 01:31N 35°23' E 016°23'816.2
2017-Jun-17 01:01N 35°26' E 016°14'816.4
2017-Jun-17 00:30N 35°28' E 016°04'1416.5
2017-Jun-16 23:39N 35°32' E 015°48'316.7
2017-Jun-16 23:30N 35°32' E 015°44'816.3
2017-Jun-16 23:00N 35°34' E 015°35'816.6
2017-Jun-16 22:30N 35°37' E 015°25'816.3
2017-Jun-16 22:00N 35°39' E 015°15'816.1
2017-Jun-16 21:30N 35°41' E 015°06'815.8
2017-Jun-16 21:00N 35°42' E 014°56'816.0
2017-Jun-16 20:30N 35°43' E 014°46'815.7
2017-Jun-16 20:00N 35°47' E 014°38'5 9.9
2017-Jun-16 19:30N 35°49' E 014°32'0 0.6
2017-Jun-16 18:58N 35°49' E 014°33'0 0.0
2017-Jun-16 18:28N 35°49' E 014°33'0 0.0
2017-Jun-16 17:52N 35°49' E 014°33'0 0.0
2017-Jun-16 17:28N 35°49' E 014°33'0 0.0
2017-Jun-16 16:58N 35°49' E 014°33'0 0.0
2017-Jun-16 16:25N 35°49' E 014°33'0 0.0
2017-Jun-16 15:52N 35°49' E 014°33'0 0.0
2017-Jun-16 15:28N 35°49' E 014°33'0 0.0
2017-Jun-16 14:58N 35°49' E 014°33'0 0.0
2017-Jun-16 14:28N 35°49' E 014°33'0 0.0
2017-Jun-16 13:25N 35°49' E 014°33'0 0.0
2017-Jun-16 12:58N 35°49' E 014°33'0 0.2
2017-Jun-16 12:28N 35°49' E 014°32'1 2.2
2017-Jun-16 12:00N 35°49' E 014°34'4 8.6
2017-Jun-16 11:30N 35°46' E 014°38'4 8.0
2017-Jun-16 11:00N 35°42' E 014°35'4 7.4
2017-Jun-16 10:30N 35°42' E 014°31'816.2
2017-Jun-16 10:00N 35°42' E 014°21'917.2
2017-Jun-16 09:31N 35°48' E 014°13'917.8
2017-Jun-16 09:01N 35°54' E 014°05'918.2
2017-Jun-16 08:30N 36°00' E 013°57'1019.7
2017-Jun-16 08:00N 36°07' E 013°48'1019.6
2017-Jun-16 07:31N 36°14' E 013°40'1019.5
2017-Jun-16 07:01N 36°21' E 013°31'1019.4
2017-Jun-16 06:30N 36°28' E 013°23'1019.3
2017-Jun-16 06:01N 36°35' E 013°14'1019.4
2017-Jun-16 05:30N 36°41' E 013°05'1019.6
2017-Jun-16 05:00N 36°48' E 012°56'1019.6
2017-Jun-16 04:30N 36°55' E 012°48'1020.3
2017-Jun-16 04:00N 37°03' E 012°39'1020.2
2017-Jun-16 03:30N 37°10' E 012°31'1020.3
2017-Jun-16 03:00N 37°18' E 012°22'1020.6
2017-Jun-16 02:30N 37°26' E 012°14'1020.4
2017-Jun-16 02:00N 37°34' E 012°06'1020.2
2017-Jun-16 01:30N 37°42' E 011°58'1019.6
2017-Jun-16 01:00N 37°50' E 011°51'1019.6
2017-Jun-16 00:31N 37°59' E 011°47'1019.3
2017-Jun-16 00:01N 38°08' E 011°43'1019.2
2017-Jun-15 23:31N 38°17' E 011°39'1019.4
2017-Jun-15 22:59N 38°27' E 011°35'919.4
2017-Jun-15 22:30N 38°35' E 011°31'1019.4
2017-Jun-15 22:01N 38°45' E 011°27'1019.5
2017-Jun-15 21:30N 38°54' E 011°23'1019.6
2017-Jun-15 20:59N 39°04' E 011°19'919.5
2017-Jun-15 20:30N 39°13' E 011°15'1019.7
2017-Jun-15 20:00N 39°22' E 011°11'1019.7
2017-Jun-15 19:30N 39°31' E 011°07'1019.7
2017-Jun-15 19:01N 39°40' E 011°03'1019.6
2017-Jun-15 18:31N 39°50' E 010°59'1019.2
2017-Jun-15 18:01N 39°59' E 010°54'1019.2
2017-Jun-15 17:31N 40°08' E 010°51'1019.4
2017-Jun-15 17:01N 40°17' E 010°47'1019.4
2017-Jun-15 16:30N 40°26' E 010°44'1019.4
2017-Jun-15 16:01N 40°36' E 010°39'1019.4
2017-Jun-15 15:30N 40°45' E 010°35'1019.3
2017-Jun-15 15:00N 40°54' E 010°31'1919.4
2017-Jun-15 14:00N 41°12' E 010°23'1020.9
2017-Jun-15 13:30N 41°22' E 010°18'1222.2
2017-Jun-15 12:58N 41°34' E 010°14'1122.2
2017-Jun-15 12:30N 41°44' E 010°10'1222.4
2017-Jun-15 11:58N 41°55' E 010°05'1022.2
2017-Jun-15 11:30N 42°05' E 010°01'1122.1
2017-Jun-15 11:01N 42°15' E 009°56'1122.1
2017-Jun-15 10:31N 42°26' E 009°51'1122.0
2017-Jun-15 10:01N 42°36' E 009°46'1121.8
2017-Jun-15 09:30N 42°46' E 009°41'1121.3
2017-Jun-15 09:00N 42°56' E 009°37'1121.2
2017-Jun-15 08:30N 43°07' E 009°33'1121.3
2017-Jun-15 07:59N 43°17' E 009°29'1021.2
2017-Jun-15 07:31N 43°27' E 009°24'1020.9
2017-Jun-15 07:01N 43°37' E 009°19'1121.0
2017-Jun-15 06:31N 43°46' E 009°14'1121.0
2017-Jun-15 06:01N 43°56' E 009°09'1121.2
2017-Jun-15 05:31N 44°06' E 009°04'1021.0
2017-Jun-15 05:01N 44°16' E 008°60'815.2
2017-Jun-15 04:30N 44°23' E 008°56'1 2.3
2017-Jun-15 04:00N 44°24' E 008°55'0 0.0
2017-Jun-15 03:27N 44°24' E 008°55'0 0.0
2017-Jun-15 03:00N 44°24' E 008°55'0 0.0
2017-Jun-15 02:27N 44°24' E 008°55'0 0.0
2017-Jun-15 01:57N 44°24' E 008°55'0 0.0
2017-Jun-15 01:30N 44°24' E 008°55'0 0.0
2017-Jun-15 00:57N 44°24' E 008°55'0 0.0
2017-Jun-15 00:30N 44°24' E 008°55'0 0.0
2017-Jun-14 23:57N 44°24' E 008°55'0 0.0
2017-Jun-14 23:30N 44°24' E 008°55'0 0.0
2017-Jun-14 23:00N 44°24' E 008°55'0 0.0
2017-Jun-14 22:27N 44°24' E 008°55'0 0.0
2017-Jun-14 22:00N 44°24' E 008°55'0 0.0
2017-Jun-14 21:30N 44°24' E 008°55'0 0.0
2017-Jun-14 21:00N 44°24' E 008°55'0 0.0
2017-Jun-14 20:30N 44°24' E 008°55'0 0.0
2017-Jun-14 20:00N 44°24' E 008°55'0 0.0
2017-Jun-14 19:30N 44°24' E 008°55'0 0.0
2017-Jun-14 19:00N 44°24' E 008°55'0 0.0
2017-Jun-14 18:30N 44°24' E 008°55'0 0.0
2017-Jun-14 18:00N 44°24' E 008°55'0 0.0
2017-Jun-14 17:30N 44°24' E 008°55'0 0.0
2017-Jun-14 17:00N 44°24' E 008°55'0 0.0
2017-Jun-14 16:30N 44°24' E 008°55'0 0.0
2017-Jun-14 16:00N 44°24' E 008°55'0 0.0
2017-Jun-14 15:30N 44°24' E 008°55'0 0.0
2017-Jun-14 15:00N 44°24' E 008°55'0 0.0
2017-Jun-14 13:57N 44°24' E 008°55'0 0.0
2017-Jun-14 13:30N 44°24' E 008°55'0 0.0
2017-Jun-14 13:00N 44°24' E 008°55'0 0.0
2017-Jun-14 12:30N 44°24' E 008°55'0 0.0
2017-Jun-14 11:57N 44°24' E 008°55'0 0.0
2017-Jun-14 11:24N 44°24' E 008°55'0 0.0
2017-Jun-14 11:00N 44°24' E 008°55'0 0.0
2017-Jun-14 10:27N 44°24' E 008°55'0 0.0
2017-Jun-14 09:57N 44°24' E 008°55'0 0.0
2017-Jun-14 09:30N 44°24' E 008°55'2 3.3
2017-Jun-14 09:00N 44°23' E 008°57'2 4.1
2017-Jun-14 08:30N 44°21' E 008°58'0 0.6
2017-Jun-14 08:00N 44°21' E 008°58'3 5.4
2017-Jun-14 07:30N 44°19' E 008°59'4 7.4
2017-Jun-14 07:00N 44°16' E 008°56'1 1.8
2017-Jun-14 06:31N 44°15' E 008°55'2 3.1
2017-Jun-14 06:00N 44°14' E 008°53'0 0.8
2017-Jun-14 05:30N 44°14' E 008°53'0 0.8
2017-Jun-14 05:01N 44°13' E 008°54'0 0.4
2017-Jun-14 04:30N 44°14' E 008°54'0 0.8
2017-Jun-14 04:01N 44°14' E 008°54'0 0.4
2017-Jun-14 03:30N 44°14' E 008°54'0 0.7
2017-Jun-14 03:00N 44°14' E 008°55'0 0.4
2017-Jun-14 02:30N 44°14' E 008°55'0 0.5
2017-Jun-14 02:00N 44°14' E 008°55'0 0.7
2017-Jun-14 01:30N 44°14' E 008°55'1 1.1
2017-Jun-14 01:00N 44°13' E 008°54'0 0.5
2017-Jun-14 00:30N 44°13' E 008°54'0 0.9
2017-Jun-14 00:00N 44°13' E 008°54'0 0.4
2017-Jun-13 23:30N 44°13' E 008°54'0 0.6
2017-Jun-13 23:00N 44°13' E 008°55'0 0.5
2017-Jun-13 22:30N 44°13' E 008°55'0 0.6
2017-Jun-13 22:01N 44°13' E 008°55'0 0.6
2017-Jun-13 21:30N 44°13' E 008°56'0 0.8
2017-Jun-13 21:00N 44°13' E 008°56'0 0.3
2017-Jun-13 20:31N 44°13' E 008°57'0 0.3
2017-Jun-13 20:00N 44°13' E 008°56'0 0.2
2017-Jun-13 19:30N 44°13' E 008°56'0 0.7
2017-Jun-13 19:00N 44°13' E 008°56'0 0.1
2017-Jun-13 18:30N 44°13' E 008°56'0 0.4
2017-Jun-13 18:00N 44°13' E 008°56'0 0.6
2017-Jun-13 17:30N 44°13' E 008°56'0 0.7
2017-Jun-13 17:00N 44°13' E 008°57'0 0.3
2017-Jun-13 16:31N 44°13' E 008°57'1 1.3
2017-Jun-13 16:00N 44°13' E 008°56'0 0.3
2017-Jun-13 15:30N 44°13' E 008°56'1 2.6
2017-Jun-13 15:00N 44°12' E 008°55'9 9.0
2017-Jun-13 14:00N 44°06' E 008°45'612.6
2017-Jun-13 13:30N 44°02' E 008°38'612.7
2017-Jun-13 13:00N 43°58' E 008°31'612.6
2017-Jun-13 12:30N 43°55' E 008°24'612.5
2017-Jun-13 12:00N 43°51' E 008°17'612.4
2017-Jun-13 11:30N 43°48' E 008°10'612.2
2017-Jun-13 11:00N 43°44' E 008°03'612.1
2017-Jun-13 10:30N 43°40' E 007°56'612.1
2017-Jun-13 10:00N 43°36' E 007°50'612.3
2017-Jun-13 09:30N 43°33' E 007°43'815.6
2017-Jun-13 08:58N 43°28' E 007°34'6315.7
2017-Jun-13 04:57N 42°50' E 006°24'915.8
2017-Jun-13 04:24N 42°50' E 006°12'716.0
2017-Jun-13 03:58N 42°50' E 006°03'715.9
2017-Jun-13 03:30N 42°50' E 005°53'815.9
2017-Jun-13 03:00N 42°51' E 005°42'1016.1
2017-Jun-13 02:24N 42°52' E 005°29'616.1
2017-Jun-13 02:00N 42°52' E 005°20'1015.3
2017-Jun-13 01:23N 42°57' E 005°09'616.4
2017-Jun-13 01:00N 43°02' E 005°05'816.2
2017-Jun-13 00:30N 43°10' E 005°02'816.3
2017-Jun-13 00:00N 43°18' E 004°59'511.0
2017-Jun-12 23:30N 43°23' E 004°57'5 1.1
2017-Jun-12 19:32N 43°25' E 004°51'0 0.0
2017-Jun-12 19:29N 43°25' E 004°51'0 0.0
2017-Jun-12 17:32N 43°25' E 004°51'0 0.1
2017-Jun-12 17:29N 43°25' E 004°51'0 0.0
2017-Jun-12 11:14N 43°25' E 004°51'0 0.1
2017-Jun-12 06:19N 43°25' E 004°51'4 7.6
2017-Jun-12 05:49N 43°23' E 004°56'413.5
2017-Jun-12 05:30N 43°20' E 004°59'3 5.9
2017-Jun-12 04:59N 43°17' E 005°01'3 6.3
2017-Jun-12 04:30N 43°14' E 005°02'3 6.5
2017-Jun-12 03:59N 43°11' E 005°02'3 6.4
2017-Jun-12 03:30N 43°08' E 004°59'7 7.7
2017-Jun-12 02:36N 43°03' E 004°53'1 7.8
2017-Jun-12 02:29N 43°02' E 004°53'5 8.9
2017-Jun-12 01:56N 42°58' E 004°49'6 9.5
2017-Jun-12 01:15N 42°52' E 004°44'3 9.2
2017-Jun-12 00:57N 42°50' E 004°42'5 8.9
2017-Jun-12 00:25N 42°46' E 004°39'4 8.8
2017-Jun-11 23:59N 42°43' E 004°36'5 8.8
2017-Jun-11 23:23N 42°38' E 004°32'4 8.6
2017-Jun-11 22:57N 42°35' E 004°29'4 8.6
2017-Jun-11 22:31N 42°32' E 004°27'5 9.0
2017-Jun-11 21:56N 42°28' E 004°23'4 9.1
2017-Jun-11 21:29N 42°24' E 004°20'4 8.9
2017-Jun-11 21:00N 42°20' E 004°17'5 9.1
2017-Jun-11 20:28N 42°16' E 004°14'5 9.2
2017-Jun-11 19:53N 42°12' E 004°10'5 9.1
2017-Jun-11 19:23N 42°08' E 004°07'4 9.7
2017-Jun-11 19:00N 42°05' E 004°04'812.9
2017-Jun-11 18:25N 41°58' E 003°58'612.9
2017-Jun-11 17:58N 41°53' E 003°54'713.0
2017-Jun-11 17:28N 41°48' E 003°49'612.9
2017-Jun-11 17:00N 41°44' E 003°44'713.1
2017-Jun-11 16:30N 41°38' E 003°39'713.0
2017-Jun-11 16:00N 41°33' E 003°33'713.0
2017-Jun-11 15:30N 41°28' E 003°28'612.8
2017-Jun-11 15:00N 41°23' E 003°22'1313.1
2017-Jun-11 14:00N 41°13' E 003°12'713.6
2017-Jun-11 13:30N 41°07' E 003°06'713.6
2017-Jun-11 13:00N 41°02' E 003°00'713.4
2017-Jun-11 12:30N 40°57' E 002°55'713.4
2017-Jun-11 12:00N 40°52' E 002°49'713.5
2017-Jun-11 11:30N 40°47' E 002°43'713.5
2017-Jun-11 11:00N 40°42' E 002°37'713.4
2017-Jun-11 10:30N 40°37' E 002°32'713.6
2017-Jun-11 10:01N 40°32' E 002°26'713.6
2017-Jun-11 09:30N 40°26' E 002°20'713.3
2017-Jun-11 09:00N 40°21' E 002°15'713.1
2017-Jun-11 08:30N 40°16' E 002°09'613.0
2017-Jun-11 08:00N 40°11' E 002°04'613.0
2017-Jun-11 07:30N 40°06' E 001°58'713.0
2017-Jun-11 07:00N 40°01' E 001°53'713.0
2017-Jun-11 06:30N 39°56' E 001°48'713.2
2017-Jun-11 06:00N 39°51' E 001°42'713.3
2017-Jun-11 05:30N 39°46' E 001°36'713.5
2017-Jun-11 04:59N 39°41' E 001°31'713.5
2017-Jun-11 04:29N 39°35' E 001°25'613.4
2017-Jun-11 04:00N 39°30' E 001°20'713.5
2017-Jun-11 03:28N 39°25' E 001°14'613.4
2017-Jun-11 03:00N 39°20' E 001°08'713.4
2017-Jun-11 02:30N 39°15' E 001°03'713.4
2017-Jun-11 01:59N 39°09' E 000°58'713.2
2017-Jun-11 01:29N 39°04' E 000°52'713.6
2017-Jun-11 00:59N 38°59' E 000°46'1113.7
2017-Jun-11 00:09N 38°51' E 000°37'213.6
2017-Jun-11 00:00N 38°49' E 000°35'813.6
2017-Jun-10 23:25N 38°43' E 000°29'613.5
2017-Jun-10 23:00N 38°38' E 000°25'713.5
2017-Jun-10 22:30N 38°32' E 000°20'713.5
2017-Jun-10 22:00N 38°27' E 000°16'713.4
2017-Jun-10 21:30N 38°21' E 000°11'613.1
2017-Jun-10 21:00N 38°16' E 000°06'612.8
2017-Jun-10 20:30N 38°11' E 000°01'613.0
2017-Jun-10 20:00N 38°05' W 000°03'713.4
2017-Jun-10 19:28N 37°59' W 000°08'713.7
2017-Jun-10 18:56N 37°53' W 000°13'614.1
2017-Jun-10 18:30N 37°48' W 000°18'713.8
2017-Jun-10 18:00N 37°42' W 000°22'713.7
2017-Jun-10 17:30N 37°37' W 000°28'713.3
2017-Jun-10 17:00N 37°32' W 000°33'713.1
2017-Jun-10 16:30N 37°28' W 000°40'612.9
2017-Jun-10 16:00N 37°24' W 000°46'713.0
2017-Jun-10 15:30N 37°19' W 000°51'713.0
2017-Jun-10 15:00N 37°14' W 000°57'1312.9
2017-Jun-10 14:00N 37°06' W 001°10'612.3
2017-Jun-10 13:30N 37°02' W 001°15'612.2
2017-Jun-10 13:00N 36°58' W 001°21'612.4
2017-Jun-10 12:30N 36°54' W 001°27'612.7
2017-Jun-10 12:00N 36°49' W 001°33'612.6
2017-Jun-10 11:30N 36°45' W 001°39'712.8
2017-Jun-10 10:59N 36°41' W 001°45'813.0
2017-Jun-10 10:20N 36°35' W 001°53'514.3
2017-Jun-10 10:00N 36°32' W 001°57'712.9
2017-Jun-10 09:26N 36°27' W 002°04'1512.6
2017-Jun-10 08:17N 36°21' W 002°20'1812.6
2017-Jun-10 06:50N 36°18' W 002°43'412.3
2017-Jun-10 06:30N 36°17' W 002°48'612.4
2017-Jun-10 06:00N 36°16' W 002°55'612.3
2017-Jun-10 05:29N 36°15' W 003°03'10013.3
2017-Jun-09 21:59N 36°01' W 005°05'714.5
2017-Jun-09 21:31N 35°60' W 005°14'816.3
2017-Jun-09 21:00N 35°58' W 005°24'611.9
2017-Jun-09 20:28N 35°54' W 005°30'  

Dump ship's entire track history